sensor_id;sensor_type;location;lat;lon;timestamp;P1;durP1;ratioP1;P2;durP2;ratioP2
32824;SDS011;51060;42.640;24.356;2022-12-18T00:01:35;370.87;;;126.90;;
32824;SDS011;51060;42.640;24.356;2022-12-18T00:04:02;290.77;;;109.20;;
32824;SDS011;51060;42.640;24.356;2022-12-18T00:06:30;281.73;;;105.20;;
32824;SDS011;51060;42.640;24.356;2022-12-18T00:08:58;272.23;;;109.03;;
32824;SDS011;51060;42.640;24.356;2022-12-18T00:11:26;130.47;;;72.40;;
32824;SDS011;51060;42.640;24.356;2022-12-18T00:13:53;105.43;;;69.27;;
32824;SDS011;51060;42.640;24.356;2022-12-18T00:16:21;122.10;;;73.40;;
32824;SDS011;51060;42.640;24.356;2022-12-18T00:18:48;134.20;;;78.90;;
32824;SDS011;51060;42.640;24.356;2022-12-18T00:21:15;159.70;;;83.47;;
32824;SDS011;51060;42.640;24.356;2022-12-18T00:23:41;181.03;;;91.63;;
32824;SDS011;51060;42.640;24.356;2022-12-18T00:26:10;160.47;;;82.77;;
32824;SDS011;51060;42.640;24.356;2022-12-18T00:28:40;206.43;;;92.20;;
32824;SDS011;51060;42.640;24.356;2022-12-18T00:31:10;198.50;;;85.13;;
32824;SDS011;51060;42.640;24.356;2022-12-18T00:33:37;135.37;;;69.20;;
32824;SDS011;51060;42.640;24.356;2022-12-18T00:36:04;153.80;;;80.70;;
32824;SDS011;51060;42.640;24.356;2022-12-18T00:38:30;143.13;;;78.60;;
32824;SDS011;51060;42.640;24.356;2022-12-18T00:40:56;127.70;;;72.53;;
32824;SDS011;51060;42.640;24.356;2022-12-18T00:43:22;105.63;;;60.60;;
32824;SDS011;51060;42.640;24.356;2022-12-18T00:45:47;89.50;;;45.07;;
32824;SDS011;51060;42.640;24.356;2022-12-18T00:48:13;79.50;;;43.57;;
32824;SDS011;51060;42.640;24.356;2022-12-18T00:50:38;65.73;;;34.87;;
32824;SDS011;51060;42.640;24.356;2022-12-18T00:53:04;66.57;;;34.17;;
32824;SDS011;51060;42.640;24.356;2022-12-18T00:55:30;65.23;;;36.43;;
32824;SDS011;51060;42.640;24.356;2022-12-18T00:57:55;73.73;;;43.47;;
32824;SDS011;51060;42.640;24.356;2022-12-18T01:00:21;77.43;;;39.73;;
32824;SDS011;51060;42.640;24.356;2022-12-18T01:02:47;65.17;;;36.20;;
32824;SDS011;51060;42.640;24.356;2022-12-18T01:05:13;82.03;;;38.63;;
32824;SDS011;51060;42.640;24.356;2022-12-18T01:07:39;89.63;;;43.47;;
32824;SDS011;51060;42.640;24.356;2022-12-18T01:10:05;126.60;;;56.40;;
32824;SDS011;51060;42.640;24.356;2022-12-18T01:12:32;163.13;;;71.20;;
32824;SDS011;51060;42.640;24.356;2022-12-18T01:14:58;129.40;;;59.73;;
32824;SDS011;51060;42.640;24.356;2022-12-18T01:17:23;144.10;;;66.77;;
32824;SDS011;51060;42.640;24.356;2022-12-18T01:19:49;130.77;;;58.83;;
32824;SDS011;51060;42.640;24.356;2022-12-18T01:22:15;95.63;;;46.80;;
32824;SDS011;51060;42.640;24.356;2022-12-18T01:24:40;124.43;;;53.10;;
32824;SDS011;51060;42.640;24.356;2022-12-18T01:27:06;100.57;;;49.30;;
32824;SDS011;51060;42.640;24.356;2022-12-18T01:29:32;111.67;;;54.13;;
32824;SDS011;51060;42.640;24.356;2022-12-18T01:31:57;150.43;;;63.00;;
32824;SDS011;51060;42.640;24.356;2022-12-18T01:34:23;202.93;;;82.27;;
32824;SDS011;51060;42.640;24.356;2022-12-18T01:36:49;157.97;;;65.70;;
32824;SDS011;51060;42.640;24.356;2022-12-18T01:39:17;215.30;;;67.23;;
32824;SDS011;51060;42.640;24.356;2022-12-18T01:41:43;350.43;;;78.37;;
32824;SDS011;51060;42.640;24.356;2022-12-18T01:47:25;147.33;;;58.83;;
32824;SDS011;51060;42.640;24.356;2022-12-18T01:49:53;105.57;;;47.37;;
32824;SDS011;51060;42.640;24.356;2022-12-18T01:52:19;111.33;;;49.03;;
32824;SDS011;51060;42.640;24.356;2022-12-18T01:54:45;89.67;;;45.60;;
32824;SDS011;51060;42.640;24.356;2022-12-18T01:57:12;128.93;;;53.73;;
32824;SDS011;51060;42.640;24.356;2022-12-18T01:59:37;122.20;;;53.83;;
32824;SDS011;51060;42.640;24.356;2022-12-18T02:02:04;117.40;;;51.23;;
32824;SDS011;51060;42.640;24.356;2022-12-18T02:04:30;140.73;;;47.80;;
32824;SDS011;51060;42.640;24.356;2022-12-18T02:07:14;92.47;;;42.53;;
32824;SDS011;51060;42.640;24.356;2022-12-18T02:10:29;95.97;;;40.63;;
32824;SDS011;51060;42.640;24.356;2022-12-18T02:18:21;91.23;;;33.03;;
32824;SDS011;51060;42.640;24.356;2022-12-18T02:29:01;90.97;;;31.67;;
32824;SDS011;51060;42.640;24.356;2022-12-18T02:31:30;94.13;;;36.33;;
32824;SDS011;51060;42.640;24.356;2022-12-18T02:34:00;137.47;;;41.37;;
32824;SDS011;51060;42.640;24.356;2022-12-18T02:36:27;54.10;;;28.77;;
32824;SDS011;51060;42.640;24.356;2022-12-18T02:38:53;91.30;;;34.00;;
32824;SDS011;51060;42.640;24.356;2022-12-18T02:41:20;67.57;;;31.40;;
32824;SDS011;51060;42.640;24.356;2022-12-18T02:43:47;191.03;;;45.47;;
32824;SDS011;51060;42.640;24.356;2022-12-18T02:52:07;69.53;;;30.83;;
32824;SDS011;51060;42.640;24.356;2022-12-18T03:00:25;75.30;;;22.10;;
32824;SDS011;51060;42.640;24.356;2022-12-18T03:02:59;65.10;;;17.47;;
32824;SDS011;51060;42.640;24.356;2022-12-18T03:08:07;25.50;;;11.73;;
32824;SDS011;51060;42.640;24.356;2022-12-18T03:10:42;38.63;;;15.17;;
32824;SDS011;51060;42.640;24.356;2022-12-18T03:13:15;21.93;;;12.07;;
32824;SDS011;51060;42.640;24.356;2022-12-18T03:15:45;26.77;;;13.80;;
32824;SDS011;51060;42.640;24.356;2022-12-18T03:18:23;39.23;;;14.17;;
32824;SDS011;51060;42.640;24.356;2022-12-18T03:20:58;29.87;;;12.13;;
32824;SDS011;51060;42.640;24.356;2022-12-18T03:23:27;35.27;;;10.07;;
32824;SDS011;51060;42.640;24.356;2022-12-18T03:25:56;26.13;;;9.90;;
32824;SDS011;51060;42.640;24.356;2022-12-18T03:28:24;22.37;;;9.33;;
32824;SDS011;51060;42.640;24.356;2022-12-18T03:30:51;27.33;;;11.03;;
32824;SDS011;51060;42.640;24.356;2022-12-18T03:35:50;26.93;;;10.40;;
32824;SDS011;51060;42.640;24.356;2022-12-18T03:38:16;16.13;;;9.47;;
32824;SDS011;51060;42.640;24.356;2022-12-18T03:43:18;16.63;;;9.50;;
32824;SDS011;51060;42.640;24.356;2022-12-18T03:45:59;17.63;;;9.97;;
32824;SDS011;51060;42.640;24.356;2022-12-18T03:48:30;18.47;;;8.60;;
32824;SDS011;51060;42.640;24.356;2022-12-18T03:51:07;19.87;;;8.93;;
32824;SDS011;51060;42.640;24.356;2022-12-18T03:53:44;19.40;;;8.33;;
32824;SDS011;51060;42.640;24.356;2022-12-18T03:56:14;28.83;;;9.60;;
32824;SDS011;51060;42.640;24.356;2022-12-18T03:58:41;42.77;;;11.63;;
32824;SDS011;51060;42.640;24.356;2022-12-18T04:01:10;17.87;;;9.20;;
32824;SDS011;51060;42.640;24.356;2022-12-18T04:03:37;24.03;;;11.43;;
32824;SDS011;51060;42.640;24.356;2022-12-18T04:06:03;24.83;;;10.43;;
32824;SDS011;51060;42.640;24.356;2022-12-18T04:08:30;92.70;;;13.67;;
32824;SDS011;51060;42.640;24.356;2022-12-18T04:10:56;64.27;;;12.77;;
32824;SDS011;51060;42.640;24.356;2022-12-18T04:13:25;22.83;;;9.30;;
32824;SDS011;51060;42.640;24.356;2022-12-18T04:15:53;69.60;;;11.17;;
32824;SDS011;51060;42.640;24.356;2022-12-18T04:18:19;40.93;;;10.30;;
32824;SDS011;51060;42.640;24.356;2022-12-18T04:20:44;43.40;;;10.67;;
32824;SDS011;51060;42.640;24.356;2022-12-18T04:23:10;36.87;;;11.63;;
32824;SDS011;51060;42.640;24.356;2022-12-18T04:25:36;34.00;;;9.70;;
32824;SDS011;51060;42.640;24.356;2022-12-18T04:28:01;28.13;;;10.13;;
32824;SDS011;51060;42.640;24.356;2022-12-18T04:30:27;27.73;;;10.83;;
32824;SDS011;51060;42.640;24.356;2022-12-18T04:32:52;26.93;;;11.13;;
32824;SDS011;51060;42.640;24.356;2022-12-18T04:35:18;24.00;;;10.10;;
32824;SDS011;51060;42.640;24.356;2022-12-18T04:37:44;36.87;;;10.30;;
32824;SDS011;51060;42.640;24.356;2022-12-18T04:40:10;24.40;;;9.43;;
32824;SDS011;51060;42.640;24.356;2022-12-18T04:42:36;24.73;;;14.20;;
32824;SDS011;51060;42.640;24.356;2022-12-18T04:45:02;17.53;;;8.97;;
32824;SDS011;51060;42.640;24.356;2022-12-18T04:47:27;19.33;;;9.83;;
32824;SDS011;51060;42.640;24.356;2022-12-18T04:49:53;14.83;;;7.97;;
32824;SDS011;51060;42.640;24.356;2022-12-18T04:52:19;11.77;;;7.87;;
32824;SDS011;51060;42.640;24.356;2022-12-18T04:54:44;20.10;;;8.50;;
32824;SDS011;51060;42.640;24.356;2022-12-18T04:57:10;10.90;;;7.53;;
32824;SDS011;51060;42.640;24.356;2022-12-18T04:59:35;14.13;;;10.10;;
32824;SDS011;51060;42.640;24.356;2022-12-18T05:02:01;20.03;;;12.07;;
32824;SDS011;51060;42.640;24.356;2022-12-18T05:04:26;24.63;;;13.37;;
32824;SDS011;51060;42.640;24.356;2022-12-18T05:06:52;24.27;;;15.63;;
32824;SDS011;51060;42.640;24.356;2022-12-18T05:09:17;24.07;;;13.90;;
32824;SDS011;51060;42.640;24.356;2022-12-18T05:11:43;24.67;;;11.50;;
32824;SDS011;51060;42.640;24.356;2022-12-18T05:14:09;15.70;;;8.37;;
32824;SDS011;51060;42.640;24.356;2022-12-18T05:16:34;9.97;;;6.80;;
32824;SDS011;51060;42.640;24.356;2022-12-18T05:19:00;32.47;;;10.87;;
32824;SDS011;51060;42.640;24.356;2022-12-18T05:21:25;29.97;;;11.07;;
32824;SDS011;51060;42.640;24.356;2022-12-18T05:23:51;24.03;;;14.20;;
32824;SDS011;51060;42.640;24.356;2022-12-18T05:26:17;17.17;;;9.90;;
32824;SDS011;51060;42.640;24.356;2022-12-18T05:28:43;74.50;;;31.77;;
32824;SDS011;51060;42.640;24.356;2022-12-18T05:31:09;53.93;;;30.67;;
32824;SDS011;51060;42.640;24.356;2022-12-18T05:33:35;33.33;;;11.47;;
32824;SDS011;51060;42.640;24.356;2022-12-18T05:36:01;41.47;;;11.20;;
32824;SDS011;51060;42.640;24.356;2022-12-18T05:38:30;52.20;;;9.63;;
32824;SDS011;51060;42.640;24.356;2022-12-18T05:40:56;34.27;;;10.27;;
32824;SDS011;51060;42.640;24.356;2022-12-18T05:43:22;46.57;;;9.77;;
32824;SDS011;51060;42.640;24.356;2022-12-18T05:45:48;25.07;;;8.50;;
32824;SDS011;51060;42.640;24.356;2022-12-18T05:48:14;27.80;;;8.70;;
32824;SDS011;51060;42.640;24.356;2022-12-18T05:50:41;39.67;;;8.57;;
32824;SDS011;51060;42.640;24.356;2022-12-18T05:53:07;36.63;;;10.50;;
32824;SDS011;51060;42.640;24.356;2022-12-18T05:55:37;20.00;;;8.90;;
32824;SDS011;51060;42.640;24.356;2022-12-18T05:58:04;37.00;;;9.77;;
32824;SDS011;51060;42.640;24.356;2022-12-18T06:00:31;31.87;;;10.47;;
32824;SDS011;51060;42.640;24.356;2022-12-18T06:03:00;36.90;;;12.03;;
32824;SDS011;51060;42.640;24.356;2022-12-18T06:05:26;49.67;;;17.27;;
32824;SDS011;51060;42.640;24.356;2022-12-18T06:07:52;112.10;;;37.37;;
32824;SDS011;51060;42.640;24.356;2022-12-18T06:10:17;53.80;;;22.47;;
32824;SDS011;51060;42.640;24.356;2022-12-18T06:12:43;43.23;;;15.40;;
32824;SDS011;51060;42.640;24.356;2022-12-18T06:15:09;23.87;;;8.93;;
32824;SDS011;51060;42.640;24.356;2022-12-18T06:17:35;37.23;;;14.57;;
32824;SDS011;51060;42.640;24.356;2022-12-18T06:20:01;32.30;;;11.60;;
32824;SDS011;51060;42.640;24.356;2022-12-18T06:22:27;59.13;;;23.73;;
32824;SDS011;51060;42.640;24.356;2022-12-18T06:24:53;57.07;;;26.30;;
32824;SDS011;51060;42.640;24.356;2022-12-18T06:27:18;28.50;;;9.93;;
32824;SDS011;51060;42.640;24.356;2022-12-18T06:29:44;69.10;;;33.33;;
32824;SDS011;51060;42.640;24.356;2022-12-18T06:32:12;31.00;;;11.30;;
32824;SDS011;51060;42.640;24.356;2022-12-18T06:34:37;22.93;;;9.00;;
32824;SDS011;51060;42.640;24.356;2022-12-18T06:37:03;27.77;;;8.20;;
32824;SDS011;51060;42.640;24.356;2022-12-18T06:39:29;31.70;;;8.33;;
32824;SDS011;51060;42.640;24.356;2022-12-18T06:41:55;45.50;;;8.80;;
32824;SDS011;51060;42.640;24.356;2022-12-18T06:44:20;30.50;;;9.23;;
32824;SDS011;51060;42.640;24.356;2022-12-18T06:46:46;32.50;;;9.40;;
32824;SDS011;51060;42.640;24.356;2022-12-18T06:49:12;27.90;;;8.00;;
32824;SDS011;51060;42.640;24.356;2022-12-18T06:51:37;29.57;;;8.07;;
32824;SDS011;51060;42.640;24.356;2022-12-18T06:54:03;29.47;;;7.77;;
32824;SDS011;51060;42.640;24.356;2022-12-18T06:56:29;29.23;;;7.47;;
32824;SDS011;51060;42.640;24.356;2022-12-18T06:58:55;12.80;;;6.93;;
32824;SDS011;51060;42.640;24.356;2022-12-18T07:01:20;24.27;;;7.40;;
32824;SDS011;51060;42.640;24.356;2022-12-18T07:03:46;13.40;;;8.67;;
32824;SDS011;51060;42.640;24.356;2022-12-18T07:06:16;12.90;;;8.43;;
32824;SDS011;51060;42.640;24.356;2022-12-18T07:08:44;10.63;;;6.77;;
32824;SDS011;51060;42.640;24.356;2022-12-18T07:11:10;8.37;;;5.53;;
32824;SDS011;51060;42.640;24.356;2022-12-18T07:13:35;13.40;;;5.53;;
32824;SDS011;51060;42.640;24.356;2022-12-18T07:16:08;11.90;;;7.20;;
32824;SDS011;51060;42.640;24.356;2022-12-18T07:18:34;10.43;;;7.13;;
32824;SDS011;51060;42.640;24.356;2022-12-18T07:21:06;12.70;;;8.33;;
32824;SDS011;51060;42.640;24.356;2022-12-18T07:23:33;11.13;;;8.47;;
32824;SDS011;51060;42.640;24.356;2022-12-18T07:26:06;7.10;;;5.90;;
32824;SDS011;51060;42.640;24.356;2022-12-18T07:28:34;11.60;;;9.40;;
32824;SDS011;51060;42.640;24.356;2022-12-18T07:31:07;18.77;;;13.43;;
32824;SDS011;51060;42.640;24.356;2022-12-18T07:33:36;27.20;;;18.77;;
32824;SDS011;51060;42.640;24.356;2022-12-18T07:36:03;19.70;;;14.97;;
32824;SDS011;51060;42.640;24.356;2022-12-18T07:38:30;21.63;;;16.27;;
32824;SDS011;51060;42.640;24.356;2022-12-18T07:41:00;13.90;;;10.07;;
32824;SDS011;51060;42.640;24.356;2022-12-18T07:43:29;38.33;;;27.80;;
32824;SDS011;51060;42.640;24.356;2022-12-18T07:45:55;46.93;;;37.23;;
32824;SDS011;51060;42.640;24.356;2022-12-18T07:48:21;36.63;;;29.17;;
32824;SDS011;51060;42.640;24.356;2022-12-18T07:50:46;27.73;;;19.17;;
32824;SDS011;51060;42.640;24.356;2022-12-18T07:53:12;24.60;;;17.90;;
32824;SDS011;51060;42.640;24.356;2022-12-18T07:55:39;26.40;;;20.23;;
32824;SDS011;51060;42.640;24.356;2022-12-18T07:58:06;32.87;;;22.57;;
32824;SDS011;51060;42.640;24.356;2022-12-18T08:00:33;31.93;;;22.50;;
32824;SDS011;51060;42.640;24.356;2022-12-18T08:02:59;30.90;;;21.93;;
32824;SDS011;51060;42.640;24.356;2022-12-18T08:05:28;40.37;;;28.23;;
32824;SDS011;51060;42.640;24.356;2022-12-18T08:07:56;49.70;;;32.80;;
32824;SDS011;51060;42.640;24.356;2022-12-18T08:10:23;51.17;;;36.17;;
32824;SDS011;51060;42.640;24.356;2022-12-18T08:12:49;47.93;;;31.50;;
32824;SDS011;51060;42.640;24.356;2022-12-18T08:15:16;45.63;;;30.67;;
32824;SDS011;51060;42.640;24.356;2022-12-18T08:17:42;43.30;;;30.57;;
32824;SDS011;51060;42.640;24.356;2022-12-18T08:20:07;59.77;;;43.23;;
32824;SDS011;51060;42.640;24.356;2022-12-18T08:22:34;42.20;;;32.00;;
32824;SDS011;51060;42.640;24.356;2022-12-18T08:25:02;23.47;;;18.00;;
32824;SDS011;51060;42.640;24.356;2022-12-18T08:27:28;25.53;;;14.27;;
32824;SDS011;51060;42.640;24.356;2022-12-18T08:29:54;19.53;;;12.93;;
32824;SDS011;51060;42.640;24.356;2022-12-18T08:32:20;18.93;;;14.00;;
32824;SDS011;51060;42.640;24.356;2022-12-18T08:34:45;11.07;;;9.40;;
32824;SDS011;51060;42.640;24.356;2022-12-18T08:37:11;9.23;;;8.30;;
32824;SDS011;51060;42.640;24.356;2022-12-18T08:39:39;8.83;;;7.93;;
32824;SDS011;51060;42.640;24.356;2022-12-18T08:42:04;10.37;;;8.50;;
32824;SDS011;51060;42.640;24.356;2022-12-18T08:44:48;9.10;;;7.60;;
32824;SDS011;51060;42.640;24.356;2022-12-18T08:47:14;6.17;;;5.20;;
32824;SDS011;51060;42.640;24.356;2022-12-18T08:49:39;6.60;;;5.50;;
32824;SDS011;51060;42.640;24.356;2022-12-18T08:52:05;10.53;;;6.37;;
32824;SDS011;51060;42.640;24.356;2022-12-18T08:54:31;13.10;;;8.90;;
32824;SDS011;51060;42.640;24.356;2022-12-18T08:56:56;12.77;;;6.87;;
32824;SDS011;51060;42.640;24.356;2022-12-18T08:59:22;14.20;;;7.17;;
32824;SDS011;51060;42.640;24.356;2022-12-18T09:01:48;12.00;;;6.37;;
32824;SDS011;51060;42.640;24.356;2022-12-18T09:04:14;11.03;;;7.57;;
32824;SDS011;51060;42.640;24.356;2022-12-18T09:06:40;11.97;;;8.10;;
32824;SDS011;51060;42.640;24.356;2022-12-18T09:09:06;8.87;;;6.50;;
32824;SDS011;51060;42.640;24.356;2022-12-18T09:11:33;11.63;;;7.00;;
32824;SDS011;51060;42.640;24.356;2022-12-18T09:13:59;15.20;;;10.50;;
32824;SDS011;51060;42.640;24.356;2022-12-18T09:16:25;11.23;;;8.73;;
32824;SDS011;51060;42.640;24.356;2022-12-18T09:18:53;10.07;;;6.97;;
32824;SDS011;51060;42.640;24.356;2022-12-18T09:21:24;11.60;;;8.30;;
32824;SDS011;51060;42.640;24.356;2022-12-18T09:23:51;11.80;;;8.20;;
32824;SDS011;51060;42.640;24.356;2022-12-18T09:26:17;13.43;;;8.67;;
32824;SDS011;51060;42.640;24.356;2022-12-18T09:28:43;11.13;;;8.67;;
32824;SDS011;51060;42.640;24.356;2022-12-18T09:31:10;11.73;;;8.47;;
32824;SDS011;51060;42.640;24.356;2022-12-18T09:33:36;11.83;;;9.00;;
32824;SDS011;51060;42.640;24.356;2022-12-18T09:36:03;9.80;;;6.93;;
32824;SDS011;51060;42.640;24.356;2022-12-18T09:38:30;11.97;;;9.50;;
32824;SDS011;51060;42.640;24.356;2022-12-18T09:41:39;11.40;;;9.10;;
32824;SDS011;51060;42.640;24.356;2022-12-18T09:43:57;17.93;;;12.90;;
32824;SDS011;51060;42.640;24.356;2022-12-18T09:46:27;20.30;;;12.57;;
32824;SDS011;51060;42.640;24.356;2022-12-18T09:48:55;19.10;;;11.67;;
32824;SDS011;51060;42.640;24.356;2022-12-18T09:51:25;22.57;;;14.40;;
32824;SDS011;51060;42.640;24.356;2022-12-18T09:53:58;22.43;;;13.70;;
32824;SDS011;51060;42.640;24.356;2022-12-18T09:56:34;17.90;;;12.20;;
32824;SDS011;51060;42.640;24.356;2022-12-18T09:59:01;24.00;;;14.90;;
32824;SDS011;51060;42.640;24.356;2022-12-18T10:01:28;34.83;;;17.63;;
32824;SDS011;51060;42.640;24.356;2022-12-18T10:03:54;42.10;;;20.80;;
32824;SDS011;51060;42.640;24.356;2022-12-18T10:09:00;47.27;;;22.17;;
32824;SDS011;51060;42.640;24.356;2022-12-18T10:11:36;100.50;;;27.93;;
32824;SDS011;51060;42.640;24.356;2022-12-18T10:14:15;48.33;;;27.23;;
32824;SDS011;51060;42.640;24.356;2022-12-18T10:17:03;53.53;;;24.23;;
32824;SDS011;51060;42.640;24.356;2022-12-18T10:19:59;29.47;;;15.63;;
32824;SDS011;51060;42.640;24.356;2022-12-18T10:22:46;25.47;;;17.30;;
32824;SDS011;51060;42.640;24.356;2022-12-18T10:28:08;26.93;;;19.80;;
32824;SDS011;51060;42.640;24.356;2022-12-18T10:30:36;24.00;;;15.70;;
32824;SDS011;51060;42.640;24.356;2022-12-18T10:33:03;25.23;;;18.23;;
32824;SDS011;51060;42.640;24.356;2022-12-18T10:35:29;17.60;;;10.80;;
32824;SDS011;51060;42.640;24.356;2022-12-18T10:40:47;14.87;;;10.33;;
32824;SDS011;51060;42.640;24.356;2022-12-18T10:43:30;17.80;;;9.67;;
32824;SDS011;51060;42.640;24.356;2022-12-18T10:48:35;21.90;;;13.00;;
32824;SDS011;51060;42.640;24.356;2022-12-18T10:51:06;21.50;;;14.43;;
32824;SDS011;51060;42.640;24.356;2022-12-18T10:53:33;17.43;;;11.57;;
32824;SDS011;51060;42.640;24.356;2022-12-18T10:56:00;19.67;;;11.17;;
32824;SDS011;51060;42.640;24.356;2022-12-18T10:58:30;18.17;;;12.93;;
32824;SDS011;51060;42.640;24.356;2022-12-18T11:01:18;34.63;;;12.27;;
32824;SDS011;51060;42.640;24.356;2022-12-18T11:06:21;21.40;;;13.70;;
32824;SDS011;51060;42.640;24.356;2022-12-18T11:11:31;21.90;;;12.90;;
32824;SDS011;51060;42.640;24.356;2022-12-18T11:16:23;19.40;;;11.13;;
32824;SDS011;51060;42.640;24.356;2022-12-18T11:18:48;33.10;;;23.57;;
32824;SDS011;51060;42.640;24.356;2022-12-18T11:21:14;21.57;;;13.97;;
32824;SDS011;51060;42.640;24.356;2022-12-18T11:23:50;36.30;;;21.23;;
32824;SDS011;51060;42.640;24.356;2022-12-18T11:26:17;43.17;;;17.90;;
32824;SDS011;51060;42.640;24.356;2022-12-18T11:31:33;40.70;;;15.20;;
32824;SDS011;51060;42.640;24.356;2022-12-18T11:34:00;57.57;;;15.13;;
32824;SDS011;51060;42.640;24.356;2022-12-18T11:36:31;45.73;;;14.17;;
32824;SDS011;51060;42.640;24.356;2022-12-18T11:38:59;41.20;;;13.87;;
32824;SDS011;51060;42.640;24.356;2022-12-18T11:44:19;38.43;;;14.67;;
32824;SDS011;51060;42.640;24.356;2022-12-18T11:46:51;36.13;;;11.90;;
32824;SDS011;51060;42.640;24.356;2022-12-18T11:49:22;33.03;;;14.50;;
32824;SDS011;51060;42.640;24.356;2022-12-18T11:52:10;22.03;;;12.63;;
32824;SDS011;51060;42.640;24.356;2022-12-18T11:54:52;36.57;;;12.73;;
32824;SDS011;51060;42.640;24.356;2022-12-18T12:00:18;29.37;;;13.53;;
32824;SDS011;51060;42.640;24.356;2022-12-18T12:05:40;38.10;;;19.33;;
32824;SDS011;51060;42.640;24.356;2022-12-18T12:10:57;24.47;;;15.83;;
32824;SDS011;51060;42.640;24.356;2022-12-18T12:24:55;31.67;;;20.00;;
32824;SDS011;51060;42.640;24.356;2022-12-18T12:32:42;31.27;;;18.33;;
32824;SDS011;51060;42.640;24.356;2022-12-18T12:38:19;35.00;;;17.27;;
32824;SDS011;51060;42.640;24.356;2022-12-18T12:40:51;59.97;;;17.30;;
32824;SDS011;51060;42.640;24.356;2022-12-18T12:46:00;48.10;;;19.13;;
32824;SDS011;51060;42.640;24.356;2022-12-18T12:48:49;40.40;;;21.93;;
32824;SDS011;51060;42.640;24.356;2022-12-18T12:51:25;59.73;;;25.50;;
32824;SDS011;51060;42.640;24.356;2022-12-18T12:53:53;79.27;;;27.77;;
32824;SDS011;51060;42.640;24.356;2022-12-18T12:56:24;50.40;;;21.93;;
32824;SDS011;51060;42.640;24.356;2022-12-18T12:58:58;52.30;;;21.67;;
32824;SDS011;51060;42.640;24.356;2022-12-18T13:04:56;71.27;;;25.20;;
32824;SDS011;51060;42.640;24.356;2022-12-18T13:07:26;42.47;;;23.10;;
32824;SDS011;51060;42.640;24.356;2022-12-18T13:15:33;30.83;;;20.07;;
32824;SDS011;51060;42.640;24.356;2022-12-18T13:20:34;26.47;;;18.80;;
32824;SDS011;51060;42.640;24.356;2022-12-18T13:25:54;23.00;;;17.70;;
32824;SDS011;51060;42.640;24.356;2022-12-18T13:28:49;24.87;;;18.57;;
32824;SDS011;51060;42.640;24.356;2022-12-18T13:31:12;21.77;;;16.47;;
32824;SDS011;51060;42.640;24.356;2022-12-18T13:33:42;22.27;;;16.43;;
32824;SDS011;51060;42.640;24.356;2022-12-18T13:36:27;24.80;;;19.77;;
32824;SDS011;51060;42.640;24.356;2022-12-18T13:42:44;21.20;;;16.03;;
32824;SDS011;51060;42.640;24.356;2022-12-18T13:45:37;24.63;;;17.63;;
32824;SDS011;51060;42.640;24.356;2022-12-18T13:48:11;29.73;;;18.07;;
32824;SDS011;51060;42.640;24.356;2022-12-18T13:50:41;33.13;;;21.50;;
32824;SDS011;51060;42.640;24.356;2022-12-18T13:53:11;29.00;;;20.23;;
32824;SDS011;51060;42.640;24.356;2022-12-18T13:55:44;24.30;;;17.97;;
32824;SDS011;51060;42.640;24.356;2022-12-18T13:58:12;20.03;;;14.00;;
32824;SDS011;51060;42.640;24.356;2022-12-18T14:00:41;19.90;;;14.57;;
32824;SDS011;51060;42.640;24.356;2022-12-18T14:03:21;24.03;;;16.77;;
32824;SDS011;51060;42.640;24.356;2022-12-18T14:05:54;28.30;;;19.57;;
32824;SDS011;51060;42.640;24.356;2022-12-18T14:08:25;24.50;;;16.60;;
32824;SDS011;51060;42.640;24.356;2022-12-18T14:10:53;22.83;;;14.60;;
32824;SDS011;51060;42.640;24.356;2022-12-18T14:13:21;23.10;;;15.47;;
32824;SDS011;51060;42.640;24.356;2022-12-18T14:15:50;21.67;;;14.07;;
32824;SDS011;51060;42.640;24.356;2022-12-18T14:18:25;22.47;;;16.53;;
32824;SDS011;51060;42.640;24.356;2022-12-18T14:21:14;26.37;;;17.63;;
32824;SDS011;51060;42.640;24.356;2022-12-18T14:23:44;28.97;;;19.63;;
32824;SDS011;51060;42.640;24.356;2022-12-18T14:26:23;28.60;;;20.53;;
32824;SDS011;51060;42.640;24.356;2022-12-18T14:28:52;32.70;;;21.87;;
32824;SDS011;51060;42.640;24.356;2022-12-18T14:31:23;31.53;;;19.73;;
32824;SDS011;51060;42.640;24.356;2022-12-18T14:33:50;29.00;;;19.23;;
32824;SDS011;51060;42.640;24.356;2022-12-18T14:36:18;28.13;;;18.60;;
32824;SDS011;51060;42.640;24.356;2022-12-18T14:38:55;23.43;;;16.30;;
32824;SDS011;51060;42.640;24.356;2022-12-18T14:41:22;24.87;;;17.80;;
32824;SDS011;51060;42.640;24.356;2022-12-18T14:43:48;27.80;;;17.87;;
32824;SDS011;51060;42.640;24.356;2022-12-18T14:49:04;27.57;;;17.67;;
32824;SDS011;51060;42.640;24.356;2022-12-18T14:51:42;25.13;;;17.23;;
32824;SDS011;51060;42.640;24.356;2022-12-18T14:54:16;24.57;;;17.20;;
32824;SDS011;51060;42.640;24.356;2022-12-18T14:56:44;21.67;;;14.93;;
32824;SDS011;51060;42.640;24.356;2022-12-18T14:59:19;24.63;;;16.80;;
32824;SDS011;51060;42.640;24.356;2022-12-18T15:04:34;26.93;;;18.03;;
32824;SDS011;51060;42.640;24.356;2022-12-18T15:09:43;31.37;;;20.00;;
32824;SDS011;51060;42.640;24.356;2022-12-18T15:12:19;26.83;;;16.63;;
32824;SDS011;51060;42.640;24.356;2022-12-18T15:18:00;44.93;;;32.30;;
32824;SDS011;51060;42.640;24.356;2022-12-18T15:20:28;17.73;;;13.50;;
32824;SDS011;51060;42.640;24.356;2022-12-18T15:22:56;19.13;;;13.30;;
32824;SDS011;51060;42.640;24.356;2022-12-18T15:25:40;31.70;;;20.57;;
32824;SDS011;51060;42.640;24.356;2022-12-18T15:31:01;28.27;;;19.63;;
32824;SDS011;51060;42.640;24.356;2022-12-18T15:33:33;22.23;;;16.47;;
32824;SDS011;51060;42.640;24.356;2022-12-18T15:36:01;22.13;;;14.90;;
32824;SDS011;51060;42.640;24.356;2022-12-18T15:38:33;16.03;;;10.70;;
32824;SDS011;51060;42.640;24.356;2022-12-18T15:40:58;17.93;;;11.77;;
32824;SDS011;51060;42.640;24.356;2022-12-18T15:43:24;19.03;;;11.73;;
32824;SDS011;51060;42.640;24.356;2022-12-18T15:46:00;18.57;;;12.57;;
32824;SDS011;51060;42.640;24.356;2022-12-18T15:48:30;22.00;;;15.73;;
32824;SDS011;51060;42.640;24.356;2022-12-18T15:50:58;25.50;;;18.37;;
32824;SDS011;51060;42.640;24.356;2022-12-18T15:53:25;27.47;;;19.77;;
32824;SDS011;51060;42.640;24.356;2022-12-18T15:55:54;29.10;;;21.23;;
32824;SDS011;51060;42.640;24.356;2022-12-18T15:58:38;40.10;;;23.83;;
32824;SDS011;51060;42.640;24.356;2022-12-18T16:01:04;63.27;;;36.20;;
32824;SDS011;51060;42.640;24.356;2022-12-18T16:03:30;45.83;;;28.07;;
32824;SDS011;51060;42.640;24.356;2022-12-18T16:05:55;45.83;;;28.50;;
32824;SDS011;51060;42.640;24.356;2022-12-18T16:08:23;36.77;;;26.37;;
32824;SDS011;51060;42.640;24.356;2022-12-18T16:10:48;37.30;;;25.93;;
32824;SDS011;51060;42.640;24.356;2022-12-18T16:13:15;27.43;;;20.80;;
32824;SDS011;51060;42.640;24.356;2022-12-18T16:15:41;23.43;;;17.87;;
32824;SDS011;51060;42.640;24.356;2022-12-18T16:18:07;23.00;;;18.10;;
32824;SDS011;51060;42.640;24.356;2022-12-18T16:20:32;24.07;;;19.23;;
32824;SDS011;51060;42.640;24.356;2022-12-18T16:22:58;26.37;;;18.60;;
32824;SDS011;51060;42.640;24.356;2022-12-18T16:25:25;23.50;;;17.97;;